createdAt,value
2022-12-09T00:01:15.000Z,96630.22
2022-12-09T00:03:43.866Z,96630.75
2022-12-09T00:06:16.520Z,96620.34
2022-12-09T00:08:45.473Z,96630.22
2022-12-09T00:11:13.865Z,96629.16
2022-12-09T00:13:42.638Z,96621.94
2022-12-09T00:16:15.201Z,96621.69
2022-12-09T00:18:43.968Z,96621.16
2022-12-09T00:21:13.557Z,96609.41
2022-12-09T00:23:42.407Z,96618.22
2022-12-09T00:26:10.833Z,96611.81
2022-12-09T00:28:39.075Z,96613.69
2022-12-09T00:31:08.456Z,96613.41
2022-12-09T00:33:37.861Z,96607.56
2022-12-09T00:36:07.943Z,96604.59
2022-12-09T00:38:36.256Z,96606.72
2022-12-09T00:41:04.511Z,96607.53
2022-12-09T00:43:36.055Z,96611.78
2022-12-09T00:46:04.727Z,96610.97
2022-12-09T00:48:34.622Z,96609.63
2022-12-09T00:51:04.279Z,96604.56
2022-12-09T00:53:33.330Z,96599.22
2022-12-09T00:56:01.387Z,96610.09
2022-12-09T00:58:29.752Z,96621.56
2022-12-09T01:00:58.132Z,96613.31
2022-12-09T01:03:26.828Z,96624.22
2022-12-09T01:05:55.451Z,96614.34
2022-12-09T01:08:25.442Z,96595.13
2022-12-09T01:10:54.132Z,96600.50
2022-12-09T01:13:22.813Z,96618.63
2022-12-09T01:15:50.966Z,96618.34
2022-12-09T01:18:19.658Z,96614.06
2022-12-09T01:20:57.712Z,96619.34
2022-12-09T01:23:27.413Z,96613.19
2022-12-09T01:25:55.528Z,96614.41
2022-12-09T01:28:24.145Z,96613.84
2022-12-09T01:30:52.381Z,96620.28
2022-12-09T01:33:20.824Z,96617.06
2022-12-09T01:35:48.758Z,96605.56
2022-12-09T01:38:17.201Z,96607.22
2022-12-09T01:40:48.362Z,96597.09
2022-12-09T01:43:19.243Z,96603.22
2022-12-09T01:45:47.864Z,96603.22
2022-12-09T01:48:18.667Z,96595.63
2022-12-09T01:50:51.864Z,96596.13
2022-12-09T01:53:23.329Z,96594.31
2022-12-09T01:55:54.955Z,96591.41
2022-12-09T01:58:23.534Z,96604.91
2022-12-09T02:00:52.151Z,96586.34
2022-12-09T02:03:21.022Z,96583.41
2022-12-09T02:05:50.468Z,96578.84
2022-12-09T02:08:20.742Z,96580.94
2022-12-09T02:10:57.322Z,96582.56
2022-12-09T02:13:33.150Z,96580.13
2022-12-09T02:16:07.546Z,96575.63
2022-12-09T02:18:44.408Z,96570.81
2022-12-09T02:21:17.649Z,96572.13
2022-12-09T02:23:52.573Z,96573.72
2022-12-09T02:26:29.042Z,96575.88
2022-12-09T02:29:22.533Z,96563.63
2022-12-09T02:32:19.067Z,96566.53
2022-12-09T02:34:57.134Z,96561.72
2022-12-09T02:37:31.953Z,96562.25
2022-12-09T02:40:04.045Z,96565.63
2022-12-09T02:42:37.300Z,96556.56
2022-12-09T02:45:08.899Z,96554.81
2022-12-09T02:47:42.515Z,96552.66
2022-12-09T02:50:16.177Z,96551.56
2022-12-09T02:52:48.450Z,96551.31
2022-12-09T02:55:19.912Z,96542.78
2022-12-09T02:57:52.773Z,96539.59
2022-12-09T03:00:22.232Z,96547.25
2022-12-09T03:02:56.957Z,96521.63
2022-12-09T03:05:38.800Z,96534.66
2022-12-09T03:08:18.064Z,96538.94
2022-12-09T03:10:54.880Z,96541.81
2022-12-09T03:13:37.146Z,96538.66
2022-12-09T03:16:12.472Z,96535.69
2022-12-09T03:18:45.351Z,96538.91
2022-12-09T03:21:18.281Z,96539.72
2022-12-09T03:23:47.951Z,96518.38
2022-12-09T03:26:17.457Z,96506.63
2022-12-09T03:28:50.952Z,96515.38
2022-12-09T03:31:23.119Z,96529.53
2022-12-09T03:33:55.790Z,96525.84
2022-12-09T03:36:30.115Z,96507.66
2022-12-09T03:38:59.705Z,96531.06
2022-12-09T03:41:30.476Z,96521.97
2022-12-09T03:44:03.592Z,96527.31
2022-12-09T03:46:32.433Z,96523.59
2022-12-09T03:49:01.206Z,96533.34
2022-12-09T03:51:36.920Z,96528.38
2022-12-09T03:54:11.334Z,96526.22
2022-12-09T03:56:42.961Z,96503.91
2022-12-09T03:59:13.775Z,96513.00
2022-12-09T04:01:44.421Z,96501.69
2022-12-09T04:04:14.025Z,96525.94
2022-12-09T04:06:44.799Z,96508.66
2022-12-09T04:09:14.030Z,96517.19
2022-12-09T04:11:42.318Z,96519.09
2022-12-09T04:14:15.549Z,96525.09
2022-12-09T04:16:44.535Z,96531.97
2022-12-09T04:19:13.139Z,96526.16
2022-12-09T04:21:41.191Z,96525.91
2022-12-09T04:24:11.507Z,96510.84
2022-12-09T04:26:39.662Z,96522.97
2022-12-09T04:29:08.282Z,96520.31
2022-12-09T04:31:36.634Z,96521.59
2022-12-09T04:34:09.579Z,96535.06
2022-12-09T04:36:38.789Z,96491.00
2022-12-09T04:39:08.264Z,96496.75
2022-12-09T04:41:38.395Z,96475.44
2022-12-09T04:44:07.369Z,96506.88
2022-12-09T04:46:35.834Z,96507.16
2022-12-09T04:49:04.639Z,96504.78
2022-12-09T04:51:39.231Z,96493.41
2022-12-09T04:54:09.107Z,96506.19
2022-12-09T04:56:38.452Z,96524.03
2022-12-09T04:59:07.363Z,96509.56
2022-12-09T05:01:36.218Z,96516.44
2022-12-09T05:04:05.624Z,96522.47
2022-12-09T05:06:34.439Z,96523.13
2022-12-09T05:09:04.415Z,96519.75
2022-12-09T05:11:32.984Z,96515.81
2022-12-09T05:14:03.011Z,96520.88
2022-12-09T05:16:31.750Z,96524.66
2022-12-09T05:19:01.784Z,96519.13
2022-12-09T05:21:30.271Z,96517.53
2022-12-09T05:23:58.974Z,96528.97
2022-12-09T05:26:27.229Z,96516.66
2022-12-09T05:28:56.092Z,96512.28
2022-12-09T05:31:26.050Z,96516.25
2022-12-09T05:33:54.910Z,96492.84
2022-12-09T05:36:27.780Z,96501.38
2022-12-09T05:38:57.384Z,96518.72
2022-12-09T05:41:26.226Z,96524.06
2022-12-09T05:43:55.071Z,96514.47
2022-12-09T05:46:23.835Z,96498.22
2022-12-09T05:48:54.046Z,96495.28
2022-12-09T05:51:27.172Z,96493.94
2022-12-09T05:53:57.507Z,96457.66
2022-12-09T05:56:27.594Z,96481.44
2022-12-09T05:58:56.664Z,96479.03
2022-12-09T06:01:26.506Z,96456.91
2022-12-09T06:03:57.000Z,96472.91
2022-12-09T06:06:28.194Z,96468.09
2022-12-09T06:08:58.775Z,96468.38
2022-12-09T06:11:27.910Z,96462.78
2022-12-09T06:13:57.706Z,96458.78
2022-12-09T06:16:26.490Z,96480.34
2022-12-09T06:18:57.679Z,96487.25
2022-12-09T06:21:26.119Z,96462.50
2022-12-09T06:23:55.610Z,96463.31
2022-12-09T06:26:26.184Z,96453.44
2022-12-09T06:28:56.346Z,96446.50
2022-12-09T06:31:25.931Z,96464.91
2022-12-09T06:33:58.094Z,96452.66
2022-12-09T06:36:31.206Z,96435.59
2022-12-09T06:39:09.732Z,96457.97
2022-12-09T06:41:40.013Z,96430.78
2022-12-09T06:44:09.166Z,96439.31
2022-12-09T06:46:38.514Z,96458.22
2022-12-09T06:49:08.715Z,96409.47
2022-12-09T06:51:38.216Z,96449.72
2022-12-09T06:54:07.807Z,96435.03
2022-12-09T06:56:36.731Z,96438.50
2022-12-09T06:59:09.320Z,96429.47
2022-12-09T07:01:39.769Z,96412.66
2022-12-09T07:04:09.394Z,96441.44
2022-12-09T07:06:42.678Z,96438.78
2022-12-09T07:09:14.766Z,96452.63
2022-12-09T07:11:46.499Z,96436.38
2022-12-09T07:14:16.767Z,96399.91
2022-12-09T07:16:45.521Z,96454.25
2022-12-09T07:19:20.617Z,96452.63
2022-12-09T07:21:53.245Z,96448.63
2022-12-09T07:24:22.591Z,96442.78
2022-12-09T07:26:55.123Z,96460.34
2022-12-09T07:29:24.131Z,96452.34
2022-12-09T07:31:55.685Z,96450.19
2022-12-09T07:34:27.678Z,96445.44
2022-12-09T07:36:58.598Z,96441.69
2022-12-09T07:39:32.357Z,96443.00
2022-12-09T07:42:01.514Z,96422.22
2022-12-09T07:44:31.873Z,96454.97
2022-12-09T07:47:02.572Z,96449.91
2022-12-09T07:49:34.210Z,96440.50
2022-12-09T07:52:33.766Z,96454.44
2022-12-09T07:55:06.875Z,96465.34
2022-12-09T07:57:38.788Z,96449.34
2022-12-09T08:00:29.736Z,96446.59
2022-12-09T08:03:00.138Z,96421.56
2022-12-09T08:05:32.043Z,96465.09
2022-12-09T08:08:29.248Z,96409.72
2022-12-09T08:11:00.880Z,96428.88
2022-12-09T08:13:31.083Z,96428.06
2022-12-09T08:16:05.207Z,96447.69
2022-12-09T08:18:35.702Z,96442.03
2022-12-09T08:21:06.971Z,96463.13
2022-12-09T08:23:38.934Z,96431.16
2022-12-09T08:26:08.301Z,96446.25
2022-12-09T08:28:38.758Z,96437.56
2022-12-09T08:31:13.648Z,96432.75
2022-12-09T08:33:43.521Z,96447.28
2022-12-09T08:36:16.026Z,96444.84
2022-12-09T08:38:48.089Z,96439.13
2022-12-09T08:41:19.465Z,96447.94
2022-12-09T08:43:49.177Z,96425.69
2022-12-09T08:46:21.149Z,96428.66
2022-12-09T08:48:51.830Z,96435.59
2022-12-09T08:51:20.931Z,96418.66
2022-12-09T08:53:52.934Z,96430.16
2022-12-09T08:56:25.120Z,96369.09
2022-12-09T08:58:54.769Z,96415.69
2022-12-09T09:01:25.898Z,96433.38
2022-12-09T09:03:55.015Z,96430.97
2022-12-09T09:06:25.026Z,96421.91
2022-12-09T09:08:55.667Z,96410.81
2022-12-09T09:11:27.012Z,96401.16
2022-12-09T09:13:56.969Z,96401.75
2022-12-09T09:16:28.441Z,96332.75
2022-12-09T09:18:58.330Z,96373.34
2022-12-09T09:21:31.280Z,96377.72
2022-12-09T09:24:03.892Z,96384.53
2022-12-09T09:26:34.415Z,96375.91
2022-12-09T09:29:04.151Z,96381.38
2022-12-09T09:31:33.475Z,96385.81
2022-12-09T09:34:05.768Z,96370.75
2022-12-09T09:36:35.516Z,96357.50
2022-12-09T09:39:06.851Z,96389.59
2022-12-09T09:41:47.498Z,96351.91
2022-12-09T09:44:23.985Z,96374.00
2022-12-09T09:46:55.418Z,96389.09
2022-12-09T09:49:33.708Z,96379.22
2022-12-09T09:52:08.662Z,96366.03
2022-12-09T09:54:40.831Z,96351.41
2022-12-09T09:57:17.289Z,96376.91
2022-12-09T10:00:05.086Z,96358.09
2022-12-09T10:02:56.932Z,96367.44
2022-12-09T10:05:35.757Z,96360.78
2022-12-09T10:08:24.225Z,96358.00
2022-12-09T10:11:05.806Z,96350.75
2022-12-09T10:13:48.423Z,96326.06
2022-12-09T10:16:23.870Z,96320.56
2022-12-09T10:19:07.971Z,96338.69
2022-12-09T10:21:42.672Z,96335.50
2022-12-09T10:24:24.526Z,96337.97
2022-12-09T10:27:13.308Z,96302.19
2022-12-09T10:29:50.701Z,96320.16
2022-12-09T10:32:21.581Z,96310.72
2022-12-09T10:34:50.638Z,96330.91
2022-12-09T10:37:32.238Z,96335.88
2022-12-09T10:40:14.472Z,96341.56
2022-12-09T10:43:05.040Z,96332.13
2022-12-09T10:46:00.018Z,96339.09
2022-12-09T10:48:33.084Z,96331.72
2022-12-09T10:51:05.107Z,96327.53
2022-12-09T10:53:36.129Z,96292.03
2022-12-09T10:56:05.750Z,96324.91
2022-12-09T10:58:36.587Z,96326.22
2022-12-09T11:01:11.134Z,96317.19
2022-12-09T11:03:43.325Z,96311.72
2022-12-09T11:06:27.323Z,96309.59
2022-12-09T11:08:59.191Z,96318.66
2022-12-09T11:11:44.664Z,96319.84
2022-12-09T11:14:28.694Z,96320.84
2022-12-09T11:17:01.212Z,96315.72
2022-12-09T11:19:37.010Z,96311.44
2022-12-09T11:22:23.112Z,96310.94
2022-12-09T11:24:54.806Z,96302.00
2022-12-09T11:27:31.217Z,96302.06
2022-12-09T11:30:16.086Z,96303.66
2022-12-09T11:33:09.795Z,96295.13
2022-12-09T11:35:52.859Z,96298.94
2022-12-09T11:38:42.509Z,96300.38
2022-12-09T11:41:39.006Z,96305.00
2022-12-09T11:44:22.278Z,96290.84
2022-12-09T11:47:01.970Z,96288.91
2022-12-09T11:49:35.713Z,96279.22
2022-12-09T11:52:09.754Z,96290.16
2022-12-09T11:54:46.303Z,96307.81
2022-12-09T11:57:29.344Z,96277.81
2022-12-09T12:00:04.707Z,96270.53
2022-12-09T12:02:40.336Z,96262.13
2022-12-09T12:05:25.047Z,96260.16
2022-12-09T12:08:06.798Z,96263.00
2022-12-09T12:10:39.169Z,96260.13
2022-12-09T12:13:16.097Z,96256.63
2022-12-09T12:15:50.032Z,96253.91
2022-12-09T12:18:25.020Z,96256.03
2022-12-09T12:21:20.604Z,96230.47
2022-12-09T12:24:10.968Z,96237.59
2022-12-09T12:26:49.224Z,96257.38
2022-12-09T12:29:27.816Z,96259.78
2022-12-09T12:32:11.734Z,96254.88
2022-12-09T12:35:09.862Z,96217.22
2022-12-09T12:37:54.453Z,96241.47
2022-12-09T12:40:34.681Z,96242.00
2022-12-09T12:43:38.678Z,96229.28
2022-12-09T12:46:22.333Z,96226.06
2022-12-09T12:49:05.815Z,96215.63
2022-12-09T12:51:53.867Z,96223.47
2022-12-09T12:54:39.069Z,96229.59
2022-12-09T12:57:17.140Z,96226.94
2022-12-09T12:59:56.129Z,96221.69
2022-12-09T13:02:38.917Z,96221.88
2022-12-09T13:05:18.055Z,96231.41
2022-12-09T13:07:59.033Z,96228.03
2022-12-09T13:10:41.637Z,96224.66
2022-12-09T13:13:19.264Z,96198.13
2022-12-09T13:15:54.063Z,96226.34
2022-12-09T13:18:28.171Z,96210.78
2022-12-09T13:20:58.688Z,96221.56
2022-12-09T13:23:50.454Z,96201.09
2022-12-09T13:26:30.339Z,96186.50
2022-12-09T13:29:13.669Z,96211.34
2022-12-09T13:31:59.573Z,96214.72
2022-12-09T13:34:35.197Z,96196.00
2022-12-09T13:37:03.816Z,96212.03
2022-12-09T13:40:00.903Z,96207.22
2022-12-09T13:42:57.795Z,96208.50
2022-12-09T13:45:31.521Z,96224.44
2022-12-09T13:48:04.438Z,96205.00
2022-12-09T13:50:39.909Z,96196.44
2022-12-09T13:53:23.630Z,96206.28
2022-12-09T13:55:56.822Z,96200.34
2022-12-09T13:58:42.551Z,96202.03
2022-12-09T14:01:20.523Z,96196.81
2022-12-09T14:04:07.490Z,96201.94
2022-12-09T14:06:41.221Z,96197.19
2022-12-09T14:09:26.405Z,96190.50
2022-12-09T14:11:57.293Z,96177.25
2022-12-09T14:14:59.363Z,96177.13
2022-12-09T14:18:02.742Z,96176.28
2022-12-09T14:20:39.389Z,96179.53
2022-12-09T14:23:18.413Z,96182.38
2022-12-09T14:26:05.592Z,96183.16
2022-12-09T14:28:56.283Z,96186.06
2022-12-09T14:31:58.273Z,96189.53
2022-12-09T14:34:45.342Z,96184.91
2022-12-09T14:37:37.328Z,96192.56
2022-12-09T14:40:31.000Z,96184.53
2022-12-09T14:43:09.778Z,96188.63
2022-12-09T14:45:50.387Z,96201.41
2022-12-09T14:48:22.899Z,96168.53
2022-12-09T14:51:10.020Z,96206.50
2022-12-09T14:53:39.792Z,96198.50
2022-12-09T14:56:09.029Z,96206.50
2022-12-09T14:58:37.409Z,96211.78
2022-12-09T15:01:08.435Z,96210.00
2022-12-09T15:03:44.935Z,96225.38
2022-12-09T15:06:20.051Z,96228.56
2022-12-09T15:08:51.311Z,96235.50
2022-12-09T15:11:23.815Z,96219.56
2022-12-09T15:13:54.210Z,96203.53
2022-12-09T15:16:27.491Z,96223.88
2022-12-09T15:18:56.184Z,96230.38
2022-12-09T15:21:31.798Z,96224.91
2022-12-09T15:24:01.234Z,96226.94
2022-12-09T15:26:32.834Z,96225.06
2022-12-09T15:29:05.352Z,96219.50
2022-12-09T15:31:38.413Z,96225.09
2022-12-09T15:34:15.635Z,96230.22
2022-12-09T15:36:48.364Z,96203.53
2022-12-09T15:39:24.246Z,96227.63
2022-12-09T15:42:09.826Z,96228.66
2022-12-09T15:44:43.975Z,96217.47
2022-12-09T15:47:20.656Z,96204.19
2022-12-09T15:49:54.564Z,96221.69
2022-12-09T15:52:27.295Z,96207.94
2022-12-09T15:54:56.829Z,96229.84
2022-12-09T15:57:26.003Z,96208.53
2022-12-09T15:59:57.965Z,96204.13
2022-12-09T16:02:32.209Z,96193.94
2022-12-09T16:05:05.552Z,96214.59
2022-12-09T16:07:34.780Z,96209.75
2022-12-09T16:10:07.367Z,96204.75
2022-12-09T16:12:36.950Z,96202.34
2022-12-09T16:15:07.551Z,96205.31
2022-12-09T16:17:52.958Z,96200.56
2022-12-09T16:20:35.687Z,96193.16
2022-12-09T16:23:05.600Z,96200.28
2022-12-09T16:25:39.182Z,96206.16
2022-12-09T16:28:09.127Z,96194.44
2022-12-09T16:30:47.374Z,96196.88
2022-12-09T16:33:19.943Z,96168.78
2022-12-09T16:35:58.667Z,96170.88
2022-12-09T16:38:27.610Z,96199.06
2022-12-09T16:41:17.856Z,96209.03
2022-12-09T16:43:58.468Z,96209.34
2022-12-09T16:46:40.809Z,96206.13
2022-12-09T16:49:10.586Z,96205.38
2022-12-09T16:51:39.833Z,96209.66
2022-12-09T16:54:19.689Z,96214.22
2022-12-09T16:56:49.397Z,96220.09
2022-12-09T16:59:17.601Z,96221.72
2022-12-09T17:01:46.773Z,96209.22
2022-12-09T17:04:21.772Z,96214.84
2022-12-09T17:06:50.456Z,96220.75
2022-12-09T17:09:19.515Z,96214.91
2022-12-09T17:11:49.341Z,96216.31
2022-12-09T17:14:18.384Z,96218.16
2022-12-09T17:16:46.877Z,96233.06
2022-12-09T17:19:17.556Z,96242.94
2022-12-09T17:21:45.896Z,96221.63
2022-12-09T17:24:14.594Z,96192.44
2022-12-09T17:26:42.789Z,96208.66
2022-12-09T17:29:11.250Z,96203.34
2022-12-09T17:31:39.563Z,96235.56
2022-12-09T17:34:08.215Z,96245.94
2022-12-09T17:36:38.447Z,96243.56
2022-12-09T17:39:07.917Z,96239.03
2022-12-09T17:41:36.604Z,96243.03
2022-12-09T17:44:05.896Z,96251.56
2022-12-09T17:46:35.068Z,96251.84
2022-12-09T17:49:04.126Z,96248.06
2022-12-09T17:51:35.957Z,96256.91
2022-12-09T17:54:07.095Z,96252.38
2022-12-09T17:56:35.886Z,96263.81
2022-12-09T17:59:07.552Z,96264.09
2022-12-09T18:01:36.895Z,96267.81
2022-12-09T18:04:10.501Z,96257.19
2022-12-09T18:06:41.619Z,96274.50
2022-12-09T18:09:14.710Z,96273.97
2022-12-09T18:11:43.876Z,96263.59
2022-12-09T18:14:12.727Z,96277.16
2022-12-09T18:16:41.203Z,96258.25
2022-12-09T18:19:15.592Z,96273.97
2022-12-09T18:21:44.240Z,96279.56
2022-12-09T18:24:14.505Z,96248.16
2022-12-09T18:26:42.734Z,96277.44
2022-12-09T18:29:11.874Z,96277.69
2022-12-09T18:31:41.060Z,96277.16
2022-12-09T18:34:09.636Z,96281.69
2022-12-09T18:36:39.445Z,96277.69
2022-12-09T18:39:08.799Z,96264.09
2022-12-09T18:41:38.676Z,96287.25
2022-12-09T18:44:09.110Z,96278.75
2022-12-09T18:46:40.110Z,96237.72
2022-12-09T18:49:11.663Z,96284.56
2022-12-09T18:51:40.901Z,96292.00
2022-12-09T18:54:10.089Z,96293.84
2022-12-09T18:56:39.897Z,96289.88
2022-12-09T18:59:09.481Z,96297.03
2022-12-09T19:01:41.138Z,96291.13
2022-12-09T19:04:14.466Z,96293.84
2022-12-09T19:06:45.481Z,96291.44
2022-12-09T19:09:16.645Z,96289.06
2022-12-09T19:11:48.008Z,96292.50
2022-12-09T19:14:17.720Z,96306.81
2022-12-09T19:16:47.026Z,96290.63
2022-12-09T19:19:17.158Z,96297.78
2022-12-09T19:21:45.797Z,96302.84
2022-12-09T19:24:16.260Z,96319.59
2022-12-09T19:26:46.174Z,96307.69
2022-12-09T19:29:17.894Z,96302.59
2022-12-09T19:31:49.155Z,96291.94
2022-12-09T19:34:19.081Z,96282.41
2022-12-09T19:36:49.504Z,96285.00
2022-12-09T19:39:19.739Z,96254.41
2022-12-09T19:41:50.045Z,96313.00
2022-12-09T19:44:44.284Z,96313.81
2022-12-09T19:47:09.343Z,96310.03
2022-12-09T19:49:41.003Z,96307.44
2022-12-09T19:52:09.267Z,96321.84
2022-12-09T19:54:37.989Z,96298.16
2022-12-09T19:57:08.408Z,96313.59
2022-12-09T19:59:37.776Z,96309.56
2022-12-09T20:02:08.458Z,96319.44
2022-12-09T20:04:52.099Z,96308.28
2022-12-09T20:07:21.118Z,96314.91
2022-12-09T20:09:50.088Z,96315.69
2022-12-09T20:12:20.905Z,96277.88
2022-12-09T20:14:49.292Z,96319.72
2022-12-09T20:17:18.335Z,96304.78
2022-12-09T20:19:46.490Z,96312.47
2022-12-09T20:22:14.940Z,96295.41
2022-12-09T20:24:44.463Z,96301.78
2022-12-09T20:27:13.028Z,96280.75
2022-12-09T20:29:42.833Z,96321.78
2022-12-09T20:32:11.673Z,96302.28
2022-12-09T20:34:40.542Z,96294.25
2022-12-09T20:37:09.403Z,96316.88
2022-12-09T20:39:38.807Z,96347.22
2022-12-09T20:42:07.775Z,96318.72
2022-12-09T20:44:36.206Z,96344.09
2022-12-09T20:47:05.992Z,96344.34
2022-12-09T20:49:34.552Z,96330.19
2022-12-09T20:52:03.405Z,96358.72
2022-12-09T20:54:31.941Z,96341.69
2022-12-09T20:57:00.897Z,96288.72
2022-12-09T20:59:29.112Z,96382.69
2022-12-09T21:01:57.212Z,96376.81
2022-12-09T21:04:26.957Z,96321.44
2022-12-09T21:06:55.401Z,96354.78
2022-12-09T21:09:27.268Z,96358.72
2022-12-09T21:11:55.918Z,96367.75
2022-12-09T21:14:29.429Z,96356.00
2022-12-09T21:17:00.943Z,96338.22
2022-12-09T21:19:32.527Z,96358.50
2022-12-09T21:22:01.015Z,96314.56
2022-12-09T21:24:29.496Z,96327.06
2022-12-09T21:26:57.817Z,96317.84
2022-12-09T21:29:31.631Z,96355.09
2022-12-09T21:32:00.876Z,96355.38
2022-12-09T21:34:30.340Z,96360.44
2022-12-09T21:36:59.068Z,96338.06
2022-12-09T21:39:28.763Z,96346.06
2022-12-09T21:41:57.449Z,96371.38
2022-12-09T21:44:27.526Z,96368.19
2022-12-09T21:46:56.131Z,96383.31
2022-12-09T21:49:24.486Z,96341.22
2022-12-09T21:51:54.458Z,96356.16
2022-12-09T21:54:22.896Z,96393.72
2022-12-09T21:56:51.458Z,96349.25
2022-12-09T21:59:19.988Z,96362.28
2022-12-09T22:01:48.892Z,96359.31
2022-12-09T22:04:18.022Z,96360.44
2022-12-09T22:06:48.556Z,96356.47
2022-12-09T22:09:20.885Z,96371.66
2022-12-09T22:11:49.235Z,96353.81
2022-12-09T22:14:17.843Z,96363.66
2022-12-09T22:16:47.449Z,96364.16
2022-12-09T22:19:18.335Z,96367.09
2022-12-09T22:21:47.124Z,96309.31
2022-12-09T22:24:15.969Z,96362.03
2022-12-09T22:26:46.369Z,96360.69
2022-12-09T22:29:16.119Z,96375.34
2022-12-09T22:31:45.696Z,96354.34
2022-12-09T22:34:16.006Z,96371.88
2022-12-09T22:36:44.897Z,96372.94
2022-12-09T22:39:14.718Z,96372.97
2022-12-09T22:41:43.978Z,96378.31
2022-12-09T22:44:15.268Z,96377.47
2022-12-09T22:46:44.212Z,96380.44
2022-12-09T22:49:14.785Z,96378.84
2022-12-09T22:51:43.967Z,96387.63
2022-12-09T22:54:12.822Z,96375.34
2022-12-09T22:56:44.699Z,96384.19
2022-12-09T22:59:15.612Z,96378.03
2022-12-09T23:01:46.062Z,96382.84
2022-12-09T23:04:19.068Z,96391.34
2022-12-09T23:06:47.928Z,96374.84
2022-12-09T23:09:21.341Z,96393.22
2022-12-09T23:11:50.467Z,96393.22
2022-12-09T23:14:21.078Z,96401.47
2022-12-09T23:16:49.716Z,96396.72
2022-12-09T23:19:17.968Z,96400.41
2022-12-09T23:21:46.303Z,96409.22
2022-12-09T23:24:24.104Z,96399.09
2022-12-09T23:26:53.611Z,96392.94
2022-12-09T23:29:23.767Z,96366.84
2022-12-09T23:31:52.568Z,96400.41
2022-12-09T23:34:21.615Z,96395.38
2022-12-09T23:36:50.106Z,96364.72
2022-12-09T23:39:19.604Z,96405.47
2022-12-09T23:41:49.054Z,96402.25
2022-12-09T23:44:19.372Z,96403.09
2022-12-09T23:46:49.857Z,96385.78
2022-12-09T23:49:18.683Z,96380.97
2022-12-09T23:51:47.300Z,96380.97
2022-12-09T23:54:17.930Z,96409.19
2022-12-09T23:56:48.488Z,96404.69
2022-12-09T23:59:18.095Z,96393.72
